sensor_id;sensor_type;location;lat;lon;timestamp;P1;durP1;ratioP1;P2;durP2;ratioP2
38111;SDS011;64011;56.312;44.048;2022-12-18T00:00:47;36.67;;;14.90;;
38111;SDS011;64011;56.312;44.048;2022-12-18T00:02:48;37.03;;;15.13;;
38111;SDS011;64011;56.312;44.048;2022-12-18T00:04:49;37.10;;;15.40;;
38111;SDS011;64011;56.312;44.048;2022-12-18T00:06:51;29.67;;;11.52;;
38111;SDS011;64011;56.312;44.048;2022-12-18T00:08:52;39.08;;;16.35;;
38111;SDS011;64011;56.312;44.048;2022-12-18T00:10:53;26.73;;;11.00;;
38111;SDS011;64011;56.312;44.048;2022-12-18T00:12:54;31.60;;;12.98;;
38111;SDS011;64011;56.312;44.048;2022-12-18T00:14:55;44.08;;;16.08;;
38111;SDS011;64011;56.312;44.048;2022-12-18T00:16:56;25.10;;;9.35;;
38111;SDS011;64011;56.312;44.048;2022-12-18T00:18:58;37.55;;;14.77;;
38111;SDS011;64011;56.312;44.048;2022-12-18T00:21:00;35.05;;;13.38;;
38111;SDS011;64011;56.312;44.048;2022-12-18T00:23:03;31.90;;;11.52;;
38111;SDS011;64011;56.312;44.048;2022-12-18T00:25:05;23.15;;;8.48;;
38111;SDS011;64011;56.312;44.048;2022-12-18T00:27:06;32.20;;;14.52;;
38111;SDS011;64011;56.312;44.048;2022-12-18T00:29:08;20.83;;;6.80;;
38111;SDS011;64011;56.312;44.048;2022-12-18T00:31:12;26.30;;;10.95;;
38111;SDS011;64011;56.312;44.048;2022-12-18T00:33:14;28.15;;;10.20;;
38111;SDS011;64011;56.312;44.048;2022-12-18T00:35:15;36.03;;;14.10;;
38111;SDS011;64011;56.312;44.048;2022-12-18T00:37:16;40.55;;;16.25;;
38111;SDS011;64011;56.312;44.048;2022-12-18T00:39:18;37.20;;;13.90;;
38111;SDS011;64011;56.312;44.048;2022-12-18T00:41:19;33.67;;;14.20;;
38111;SDS011;64011;56.312;44.048;2022-12-18T00:43:19;35.63;;;14.40;;
38111;SDS011;64011;56.312;44.048;2022-12-18T00:45:20;30.92;;;12.18;;
38111;SDS011;64011;56.312;44.048;2022-12-18T00:47:24;37.95;;;14.60;;
38111;SDS011;64011;56.312;44.048;2022-12-18T00:49:24;28.40;;;11.35;;
38111;SDS011;64011;56.312;44.048;2022-12-18T00:51:25;31.95;;;11.88;;
38111;SDS011;64011;56.312;44.048;2022-12-18T00:53:26;27.08;;;11.38;;
38111;SDS011;64011;56.312;44.048;2022-12-18T00:55:28;30.08;;;11.82;;
38111;SDS011;64011;56.312;44.048;2022-12-18T00:57:29;27.85;;;10.40;;
38111;SDS011;64011;56.312;44.048;2022-12-18T00:59:29;39.67;;;16.70;;
38111;SDS011;64011;56.312;44.048;2022-12-18T01:01:30;32.08;;;14.70;;
38111;SDS011;64011;56.312;44.048;2022-12-18T01:03:31;39.03;;;16.27;;
38111;SDS011;64011;56.312;44.048;2022-12-18T01:05:32;39.10;;;16.30;;
38111;SDS011;64011;56.312;44.048;2022-12-18T01:07:33;38.53;;;16.17;;
38111;SDS011;64011;56.312;44.048;2022-12-18T01:09:33;33.92;;;13.20;;
38111;SDS011;64011;56.312;44.048;2022-12-18T01:11:35;33.47;;;13.80;;
38111;SDS011;64011;56.312;44.048;2022-12-18T01:13:36;40.75;;;16.63;;
38111;SDS011;64011;56.312;44.048;2022-12-18T01:15:37;34.38;;;13.57;;
38111;SDS011;64011;56.312;44.048;2022-12-18T01:17:38;43.25;;;18.05;;
38111;SDS011;64011;56.312;44.048;2022-12-18T01:19:38;39.60;;;16.42;;
38111;SDS011;64011;56.312;44.048;2022-12-18T01:21:39;30.15;;;11.10;;
38111;SDS011;64011;56.312;44.048;2022-12-18T01:23:40;32.97;;;15.07;;
38111;SDS011;64011;56.312;44.048;2022-12-18T01:25:41;36.47;;;14.80;;
38111;SDS011;64011;56.312;44.048;2022-12-18T01:27:43;31.20;;;12.15;;
38111;SDS011;64011;56.312;44.048;2022-12-18T01:29:43;27.23;;;10.20;;
38111;SDS011;64011;56.312;44.048;2022-12-18T01:31:44;39.90;;;16.38;;
38111;SDS011;64011;56.312;44.048;2022-12-18T01:33:47;28.25;;;11.43;;
38111;SDS011;64011;56.312;44.048;2022-12-18T01:35:48;34.88;;;14.35;;
38111;SDS011;64011;56.312;44.048;2022-12-18T01:37:49;34.75;;;13.13;;
38111;SDS011;64011;56.312;44.048;2022-12-18T01:39:54;22.88;;;7.78;;
38111;SDS011;64011;56.312;44.048;2022-12-18T01:41:54;32.50;;;12.65;;
38111;SDS011;64011;56.312;44.048;2022-12-18T01:43:57;35.05;;;14.70;;
38111;SDS011;64011;56.312;44.048;2022-12-18T01:45:59;35.13;;;14.63;;
38111;SDS011;64011;56.312;44.048;2022-12-18T01:48:01;29.25;;;11.80;;
38111;SDS011;64011;56.312;44.048;2022-12-18T01:50:03;32.90;;;11.35;;
38111;SDS011;64011;56.312;44.048;2022-12-18T01:52:06;32.10;;;11.90;;
38111;SDS011;64011;56.312;44.048;2022-12-18T01:54:06;33.15;;;12.82;;
38111;SDS011;64011;56.312;44.048;2022-12-18T01:56:07;26.50;;;11.27;;
38111;SDS011;64011;56.312;44.048;2022-12-18T01:58:09;28.42;;;11.70;;
38111;SDS011;64011;56.312;44.048;2022-12-18T02:00:12;32.28;;;12.40;;
38111;SDS011;64011;56.312;44.048;2022-12-18T02:02:14;20.35;;;7.00;;
38111;SDS011;64011;56.312;44.048;2022-12-18T02:04:20;23.42;;;9.07;;
38111;SDS011;64011;56.312;44.048;2022-12-18T02:06:23;21.85;;;7.75;;
38111;SDS011;64011;56.312;44.048;2022-12-18T02:08:29;28.67;;;11.63;;
38111;SDS011;64011;56.312;44.048;2022-12-18T02:10:35;24.17;;;8.48;;
38111;SDS011;64011;56.312;44.048;2022-12-18T02:12:42;22.90;;;7.43;;
38111;SDS011;64011;56.312;44.048;2022-12-18T02:14:44;32.58;;;13.18;;
38111;SDS011;64011;56.312;44.048;2022-12-18T02:16:52;35.22;;;14.75;;
38111;SDS011;64011;56.312;44.048;2022-12-18T02:18:57;21.45;;;7.43;;
38111;SDS011;64011;56.312;44.048;2022-12-18T02:21:00;19.65;;;7.32;;
38111;SDS011;64011;56.312;44.048;2022-12-18T02:23:11;31.55;;;12.52;;
38111;SDS011;64011;56.312;44.048;2022-12-18T02:25:19;24.88;;;8.75;;
38111;SDS011;64011;56.312;44.048;2022-12-18T02:27:29;30.92;;;11.82;;
38111;SDS011;64011;56.312;44.048;2022-12-18T02:29:31;26.13;;;10.73;;
38111;SDS011;64011;56.312;44.048;2022-12-18T02:31:35;22.17;;;8.15;;
38111;SDS011;64011;56.312;44.048;2022-12-18T02:33:39;24.63;;;8.20;;
38111;SDS011;64011;56.312;44.048;2022-12-18T02:35:40;28.02;;;10.98;;
38111;SDS011;64011;56.312;44.048;2022-12-18T02:37:42;28.80;;;11.30;;
38111;SDS011;64011;56.312;44.048;2022-12-18T02:39:44;24.13;;;9.52;;
38111;SDS011;64011;56.312;44.048;2022-12-18T02:41:48;22.33;;;7.13;;
38111;SDS011;64011;56.312;44.048;2022-12-18T02:43:52;30.15;;;11.82;;
38111;SDS011;64011;56.312;44.048;2022-12-18T02:45:57;21.83;;;7.45;;
38111;SDS011;64011;56.312;44.048;2022-12-18T02:47:59;26.77;;;9.30;;
38111;SDS011;64011;56.312;44.048;2022-12-18T02:50:02;29.95;;;12.00;;
38111;SDS011;64011;56.312;44.048;2022-12-18T02:52:08;27.92;;;11.00;;
38111;SDS011;64011;56.312;44.048;2022-12-18T02:54:17;25.52;;;9.63;;
38111;SDS011;64011;56.312;44.048;2022-12-18T02:56:24;26.23;;;11.70;;
38111;SDS011;64011;56.312;44.048;2022-12-18T02:58:28;23.73;;;8.45;;
38111;SDS011;64011;56.312;44.048;2022-12-18T03:00:35;17.15;;;4.82;;
38111;SDS011;64011;56.312;44.048;2022-12-18T03:02:39;25.40;;;8.98;;
38111;SDS011;64011;56.312;44.048;2022-12-18T03:04:46;28.45;;;10.80;;
38111;SDS011;64011;56.312;44.048;2022-12-18T03:06:49;24.13;;;8.77;;
38111;SDS011;64011;56.312;44.048;2022-12-18T03:09:01;23.75;;;9.00;;
38111;SDS011;64011;56.312;44.048;2022-12-18T03:11:05;29.85;;;9.93;;
38111;SDS011;64011;56.312;44.048;2022-12-18T03:13:09;24.75;;;7.40;;
38111;SDS011;64011;56.312;44.048;2022-12-18T03:15:13;25.92;;;10.00;;
38111;SDS011;64011;56.312;44.048;2022-12-18T03:17:17;19.95;;;7.45;;
38111;SDS011;64011;56.312;44.048;2022-12-18T03:19:21;23.60;;;8.50;;
38111;SDS011;64011;56.312;44.048;2022-12-18T03:21:28;17.50;;;6.35;;
38111;SDS011;64011;56.312;44.048;2022-12-18T03:23:32;16.45;;;5.65;;
38111;SDS011;64011;56.312;44.048;2022-12-18T03:25:36;17.00;;;6.65;;
38111;SDS011;64011;56.312;44.048;2022-12-18T03:27:41;19.35;;;6.75;;
38111;SDS011;64011;56.312;44.048;2022-12-18T03:29:44;13.45;;;4.50;;
38111;SDS011;64011;56.312;44.048;2022-12-18T03:31:47;20.63;;;6.95;;
38111;SDS011;64011;56.312;44.048;2022-12-18T03:33:53;25.52;;;10.27;;
38111;SDS011;64011;56.312;44.048;2022-12-18T03:35:55;16.45;;;5.25;;
38111;SDS011;64011;56.312;44.048;2022-12-18T03:37:55;19.35;;;6.13;;
38111;SDS011;64011;56.312;44.048;2022-12-18T03:39:56;21.42;;;7.88;;
38111;SDS011;64011;56.312;44.048;2022-12-18T03:41:58;22.60;;;8.07;;
38111;SDS011;64011;56.312;44.048;2022-12-18T03:44:05;21.05;;;8.63;;
38111;SDS011;64011;56.312;44.048;2022-12-18T03:46:11;16.15;;;5.45;;
38111;SDS011;64011;56.312;44.048;2022-12-18T03:48:16;23.00;;;9.02;;
38111;SDS011;64011;56.312;44.048;2022-12-18T03:50:21;24.05;;;8.85;;
38111;SDS011;64011;56.312;44.048;2022-12-18T03:52:25;16.30;;;5.45;;
38111;SDS011;64011;56.312;44.048;2022-12-18T03:54:27;22.92;;;8.48;;
38111;SDS011;64011;56.312;44.048;2022-12-18T03:56:29;19.90;;;6.85;;
38111;SDS011;64011;56.312;44.048;2022-12-18T03:58:31;15.85;;;4.95;;
38111;SDS011;64011;56.312;44.048;2022-12-18T04:00:33;15.60;;;5.55;;
38111;SDS011;64011;56.312;44.048;2022-12-18T04:02:34;13.45;;;4.13;;
38111;SDS011;64011;56.312;44.048;2022-12-18T04:04:36;15.02;;;5.00;;
38111;SDS011;64011;56.312;44.048;2022-12-18T04:06:39;20.80;;;7.05;;
38111;SDS011;64011;56.312;44.048;2022-12-18T04:08:40;19.75;;;7.28;;
38111;SDS011;64011;56.312;44.048;2022-12-18T04:10:41;12.63;;;3.60;;
38111;SDS011;64011;56.312;44.048;2022-12-18T04:12:42;11.25;;;3.72;;
38111;SDS011;64011;56.312;44.048;2022-12-18T04:14:43;18.73;;;6.13;;
38111;SDS011;64011;56.312;44.048;2022-12-18T04:16:43;16.42;;;6.30;;
38111;SDS011;64011;56.312;44.048;2022-12-18T04:18:44;16.30;;;5.88;;
38111;SDS011;64011;56.312;44.048;2022-12-18T04:20:45;16.15;;;5.28;;
38111;SDS011;64011;56.312;44.048;2022-12-18T04:22:47;10.30;;;3.30;;
38111;SDS011;64011;56.312;44.048;2022-12-18T04:24:48;19.85;;;7.13;;
38111;SDS011;64011;56.312;44.048;2022-12-18T04:26:48;22.50;;;8.93;;
38111;SDS011;64011;56.312;44.048;2022-12-18T04:28:49;23.15;;;8.95;;
38111;SDS011;64011;56.312;44.048;2022-12-18T04:30:50;14.90;;;5.55;;
38111;SDS011;64011;56.312;44.048;2022-12-18T04:32:50;21.98;;;8.38;;
38111;SDS011;64011;56.312;44.048;2022-12-18T04:34:51;23.65;;;9.60;;
38111;SDS011;64011;56.312;44.048;2022-12-18T04:36:52;21.95;;;9.27;;
38111;SDS011;64011;56.312;44.048;2022-12-18T04:38:54;20.20;;;7.38;;
38111;SDS011;64011;56.312;44.048;2022-12-18T04:40:55;19.08;;;7.85;;
38111;SDS011;64011;56.312;44.048;2022-12-18T04:42:55;23.23;;;8.57;;
38111;SDS011;64011;56.312;44.048;2022-12-18T04:44:56;21.88;;;8.40;;
38111;SDS011;64011;56.312;44.048;2022-12-18T04:46:57;19.45;;;6.35;;
38111;SDS011;64011;56.312;44.048;2022-12-18T04:48:57;24.27;;;9.48;;
38111;SDS011;64011;56.312;44.048;2022-12-18T04:50:58;19.70;;;7.53;;
38111;SDS011;64011;56.312;44.048;2022-12-18T04:52:59;20.33;;;8.27;;
38111;SDS011;64011;56.312;44.048;2022-12-18T04:55:01;23.35;;;8.55;;
38111;SDS011;64011;56.312;44.048;2022-12-18T04:57:04;21.00;;;7.07;;
38111;SDS011;64011;56.312;44.048;2022-12-18T04:59:04;21.48;;;8.13;;
38111;SDS011;64011;56.312;44.048;2022-12-18T05:01:05;21.95;;;8.05;;
38111;SDS011;64011;56.312;44.048;2022-12-18T05:03:06;23.35;;;8.65;;
38111;SDS011;64011;56.312;44.048;2022-12-18T05:05:07;26.13;;;9.65;;
38111;SDS011;64011;56.312;44.048;2022-12-18T05:07:08;24.05;;;9.73;;
38111;SDS011;64011;56.312;44.048;2022-12-18T05:09:09;23.40;;;9.95;;
38111;SDS011;64011;56.312;44.048;2022-12-18T05:11:12;25.63;;;10.63;;
38111;SDS011;64011;56.312;44.048;2022-12-18T05:13:14;23.25;;;9.07;;
38111;SDS011;64011;56.312;44.048;2022-12-18T05:15:14;23.08;;;8.77;;
38111;SDS011;64011;56.312;44.048;2022-12-18T05:17:15;25.27;;;10.02;;
38111;SDS011;64011;56.312;44.048;2022-12-18T05:19:16;24.92;;;9.48;;
38111;SDS011;64011;56.312;44.048;2022-12-18T05:21:16;24.20;;;10.02;;
38111;SDS011;64011;56.312;44.048;2022-12-18T05:23:17;18.58;;;6.35;;
38111;SDS011;64011;56.312;44.048;2022-12-18T05:25:18;23.15;;;9.88;;
38111;SDS011;64011;56.312;44.048;2022-12-18T05:27:20;23.88;;;9.48;;
38111;SDS011;64011;56.312;44.048;2022-12-18T05:29:21;18.40;;;6.45;;
38111;SDS011;64011;56.312;44.048;2022-12-18T05:31:22;23.25;;;9.73;;
38111;SDS011;64011;56.312;44.048;2022-12-18T05:33:23;23.60;;;9.50;;
38111;SDS011;64011;56.312;44.048;2022-12-18T05:35:25;24.73;;;10.10;;
38111;SDS011;64011;56.312;44.048;2022-12-18T05:37:26;23.15;;;9.38;;
38111;SDS011;64011;56.312;44.048;2022-12-18T05:39:26;26.25;;;10.32;;
38111;SDS011;64011;56.312;44.048;2022-12-18T05:41:27;25.17;;;10.15;;
38111;SDS011;64011;56.312;44.048;2022-12-18T05:43:30;21.33;;;8.30;;
38111;SDS011;64011;56.312;44.048;2022-12-18T05:45:31;26.80;;;11.32;;
38111;SDS011;64011;56.312;44.048;2022-12-18T05:47:31;21.63;;;7.63;;
38111;SDS011;64011;56.312;44.048;2022-12-18T05:49:32;26.58;;;10.80;;
38111;SDS011;64011;56.312;44.048;2022-12-18T05:51:33;22.90;;;9.55;;
38111;SDS011;64011;56.312;44.048;2022-12-18T05:53:34;25.25;;;10.30;;
38111;SDS011;64011;56.312;44.048;2022-12-18T05:55:36;25.02;;;10.00;;
38111;SDS011;64011;56.312;44.048;2022-12-18T05:57:37;23.17;;;10.00;;
38111;SDS011;64011;56.312;44.048;2022-12-18T05:59:39;24.27;;;9.95;;
38111;SDS011;64011;56.312;44.048;2022-12-18T06:01:40;26.23;;;9.95;;
38111;SDS011;64011;56.312;44.048;2022-12-18T06:03:41;26.27;;;10.00;;
38111;SDS011;64011;56.312;44.048;2022-12-18T06:05:42;25.45;;;10.05;;
38111;SDS011;64011;56.312;44.048;2022-12-18T06:07:44;24.88;;;9.77;;
38111;SDS011;64011;56.312;44.048;2022-12-18T06:09:45;25.75;;;10.88;;
38111;SDS011;64011;56.312;44.048;2022-12-18T06:11:45;26.13;;;10.18;;
38111;SDS011;64011;56.312;44.048;2022-12-18T06:13:46;25.38;;;10.40;;
38111;SDS011;64011;56.312;44.048;2022-12-18T06:15:51;25.42;;;9.30;;
38111;SDS011;64011;56.312;44.048;2022-12-18T06:17:52;23.05;;;10.05;;
38111;SDS011;64011;56.312;44.048;2022-12-18T06:19:52;23.73;;;9.10;;
38111;SDS011;64011;56.312;44.048;2022-12-18T06:21:53;27.92;;;11.60;;
38111;SDS011;64011;56.312;44.048;2022-12-18T06:23:54;23.70;;;9.43;;
38111;SDS011;64011;56.312;44.048;2022-12-18T06:25:54;25.13;;;10.52;;
38111;SDS011;64011;56.312;44.048;2022-12-18T06:27:55;25.20;;;10.15;;
38111;SDS011;64011;56.312;44.048;2022-12-18T06:29:56;27.52;;;11.32;;
38111;SDS011;64011;56.312;44.048;2022-12-18T06:31:58;26.90;;;11.60;;
38111;SDS011;64011;56.312;44.048;2022-12-18T06:33:59;26.40;;;11.20;;
38111;SDS011;64011;56.312;44.048;2022-12-18T06:36:02;27.58;;;11.13;;
38111;SDS011;64011;56.312;44.048;2022-12-18T06:38:04;27.83;;;10.73;;
38111;SDS011;64011;56.312;44.048;2022-12-18T06:40:05;26.75;;;11.93;;
38111;SDS011;64011;56.312;44.048;2022-12-18T06:42:07;26.65;;;10.85;;
38111;SDS011;64011;56.312;44.048;2022-12-18T06:44:07;22.05;;;9.20;;
38111;SDS011;64011;56.312;44.048;2022-12-18T06:46:08;25.67;;;11.25;;
38111;SDS011;64011;56.312;44.048;2022-12-18T06:48:11;25.08;;;10.50;;
38111;SDS011;64011;56.312;44.048;2022-12-18T06:50:12;25.65;;;10.45;;
38111;SDS011;64011;56.312;44.048;2022-12-18T06:52:13;26.92;;;11.70;;
38111;SDS011;64011;56.312;44.048;2022-12-18T06:54:13;24.98;;;10.68;;
38111;SDS011;64011;56.312;44.048;2022-12-18T06:56:14;26.20;;;11.27;;
38111;SDS011;64011;56.312;44.048;2022-12-18T06:58:15;28.58;;;12.40;;
38111;SDS011;64011;56.312;44.048;2022-12-18T07:00:16;26.02;;;11.40;;
38111;SDS011;64011;56.312;44.048;2022-12-18T07:02:17;26.52;;;11.68;;
38111;SDS011;64011;56.312;44.048;2022-12-18T07:04:19;26.55;;;11.60;;
38111;SDS011;64011;56.312;44.048;2022-12-18T07:06:22;29.80;;;11.30;;
38111;SDS011;64011;56.312;44.048;2022-12-18T07:08:25;25.58;;;10.38;;
38111;SDS011;64011;56.312;44.048;2022-12-18T07:10:26;26.00;;;11.60;;
38111;SDS011;64011;56.312;44.048;2022-12-18T07:12:26;26.33;;;11.32;;
38111;SDS011;64011;56.312;44.048;2022-12-18T07:14:27;25.63;;;10.88;;
38111;SDS011;64011;56.312;44.048;2022-12-18T07:16:28;23.50;;;10.32;;
38111;SDS011;64011;56.312;44.048;2022-12-18T07:18:29;24.83;;;10.57;;
38111;SDS011;64011;56.312;44.048;2022-12-18T07:20:31;27.40;;;11.73;;
38111;SDS011;64011;56.312;44.048;2022-12-18T07:22:31;25.42;;;10.65;;
38111;SDS011;64011;56.312;44.048;2022-12-18T07:24:32;23.88;;;10.77;;
38111;SDS011;64011;56.312;44.048;2022-12-18T07:26:33;28.85;;;11.95;;
38111;SDS011;64011;56.312;44.048;2022-12-18T07:28:34;26.70;;;11.48;;
38111;SDS011;64011;56.312;44.048;2022-12-18T07:30:36;26.17;;;11.50;;
38111;SDS011;64011;56.312;44.048;2022-12-18T07:32:37;24.55;;;10.65;;
38111;SDS011;64011;56.312;44.048;2022-12-18T07:34:38;26.63;;;11.18;;
38111;SDS011;64011;56.312;44.048;2022-12-18T07:36:40;26.48;;;11.80;;
38111;SDS011;64011;56.312;44.048;2022-12-18T07:38:41;26.50;;;11.52;;
38111;SDS011;64011;56.312;44.048;2022-12-18T07:40:42;26.27;;;11.80;;
38111;SDS011;64011;56.312;44.048;2022-12-18T07:42:42;23.58;;;10.40;;
38111;SDS011;64011;56.312;44.048;2022-12-18T07:44:43;26.35;;;11.73;;
38111;SDS011;64011;56.312;44.048;2022-12-18T07:46:44;24.98;;;11.00;;
38111;SDS011;64011;56.312;44.048;2022-12-18T07:48:44;26.30;;;11.20;;
38111;SDS011;64011;56.312;44.048;2022-12-18T07:50:45;25.67;;;10.90;;
38111;SDS011;64011;56.312;44.048;2022-12-18T07:52:47;24.17;;;11.15;;
38111;SDS011;64011;56.312;44.048;2022-12-18T07:54:48;26.00;;;10.55;;
38111;SDS011;64011;56.312;44.048;2022-12-18T07:56:49;27.10;;;12.13;;
38111;SDS011;64011;56.312;44.048;2022-12-18T07:58:49;26.83;;;10.80;;
38111;SDS011;64011;56.312;44.048;2022-12-18T08:00:50;27.23;;;11.60;;
38111;SDS011;64011;56.312;44.048;2022-12-18T08:02:51;28.48;;;11.27;;
38111;SDS011;64011;56.312;44.048;2022-12-18T08:04:52;25.25;;;11.15;;
38111;SDS011;64011;56.312;44.048;2022-12-18T08:06:52;26.33;;;11.35;;
38111;SDS011;64011;56.312;44.048;2022-12-18T08:08:55;25.77;;;11.18;;
38111;SDS011;64011;56.312;44.048;2022-12-18T08:10:56;27.15;;;11.52;;
38111;SDS011;64011;56.312;44.048;2022-12-18T08:12:57;25.75;;;11.00;;
38111;SDS011;64011;56.312;44.048;2022-12-18T08:14:57;26.38;;;10.57;;
38111;SDS011;64011;56.312;44.048;2022-12-18T08:16:58;25.95;;;11.40;;
38111;SDS011;64011;56.312;44.048;2022-12-18T08:18:59;26.33;;;11.60;;
38111;SDS011;64011;56.312;44.048;2022-12-18T08:21:07;30.00;;;11.80;;
38111;SDS011;64011;56.312;44.048;2022-12-18T08:23:08;28.17;;;11.80;;
38111;SDS011;64011;56.312;44.048;2022-12-18T08:25:10;27.02;;;11.00;;
38111;SDS011;64011;56.312;44.048;2022-12-18T08:27:10;26.92;;;11.57;;
38111;SDS011;64011;56.312;44.048;2022-12-18T08:29:11;28.08;;;11.77;;
38111;SDS011;64011;56.312;44.048;2022-12-18T08:31:12;26.63;;;11.30;;
38111;SDS011;64011;56.312;44.048;2022-12-18T08:33:13;27.02;;;11.45;;
38111;SDS011;64011;56.312;44.048;2022-12-18T08:35:13;27.00;;;11.70;;
38111;SDS011;64011;56.312;44.048;2022-12-18T08:37:14;27.83;;;11.63;;
38111;SDS011;64011;56.312;44.048;2022-12-18T08:39:15;27.95;;;12.23;;
38111;SDS011;64011;56.312;44.048;2022-12-18T08:41:17;26.52;;;12.07;;
38111;SDS011;64011;56.312;44.048;2022-12-18T08:43:18;28.13;;;12.15;;
38111;SDS011;64011;56.312;44.048;2022-12-18T08:45:19;28.75;;;13.27;;
38111;SDS011;64011;56.312;44.048;2022-12-18T08:47:19;28.35;;;13.48;;
38111;SDS011;64011;56.312;44.048;2022-12-18T08:49:20;28.75;;;12.55;;
38111;SDS011;64011;56.312;44.048;2022-12-18T08:51:21;28.95;;;12.95;;
38111;SDS011;64011;56.312;44.048;2022-12-18T08:53:22;29.42;;;12.73;;
38111;SDS011;64011;56.312;44.048;2022-12-18T08:55:23;26.98;;;12.20;;
38111;SDS011;64011;56.312;44.048;2022-12-18T08:57:26;31.70;;;13.90;;
38111;SDS011;64011;56.312;44.048;2022-12-18T08:59:26;30.17;;;13.45;;
38111;SDS011;64011;56.312;44.048;2022-12-18T09:01:27;30.52;;;15.68;;
38111;SDS011;64011;56.312;44.048;2022-12-18T09:03:28;29.05;;;13.40;;
38111;SDS011;64011;56.312;44.048;2022-12-18T09:05:28;32.30;;;14.48;;
38111;SDS011;64011;56.312;44.048;2022-12-18T09:07:30;28.73;;;14.35;;
38111;SDS011;64011;56.312;44.048;2022-12-18T09:09:31;30.15;;;14.32;;
38111;SDS011;64011;56.312;44.048;2022-12-18T09:11:32;31.60;;;14.45;;
38111;SDS011;64011;56.312;44.048;2022-12-18T09:13:34;30.48;;;13.88;;
38111;SDS011;64011;56.312;44.048;2022-12-18T09:15:39;31.17;;;14.32;;
38111;SDS011;64011;56.312;44.048;2022-12-18T09:17:40;30.33;;;14.02;;
38111;SDS011;64011;56.312;44.048;2022-12-18T09:19:41;29.80;;;14.18;;
38111;SDS011;64011;56.312;44.048;2022-12-18T09:21:42;29.27;;;13.95;;
38111;SDS011;64011;56.312;44.048;2022-12-18T09:23:43;28.88;;;13.85;;
38111;SDS011;64011;56.312;44.048;2022-12-18T09:25:43;28.15;;;12.73;;
38111;SDS011;64011;56.312;44.048;2022-12-18T09:27:46;26.63;;;12.32;;
38111;SDS011;64011;56.312;44.048;2022-12-18T09:29:48;26.95;;;12.15;;
38111;SDS011;64011;56.312;44.048;2022-12-18T09:31:49;29.58;;;14.07;;
38111;SDS011;64011;56.312;44.048;2022-12-18T09:33:50;27.55;;;12.88;;
38111;SDS011;64011;56.312;44.048;2022-12-18T09:35:50;30.35;;;13.27;;
38111;SDS011;64011;56.312;44.048;2022-12-18T09:37:51;27.42;;;12.70;;
38111;SDS011;64011;56.312;44.048;2022-12-18T09:39:52;28.13;;;12.93;;
38111;SDS011;64011;56.312;44.048;2022-12-18T09:41:53;27.65;;;12.82;;
38111;SDS011;64011;56.312;44.048;2022-12-18T09:43:56;28.27;;;12.75;;
38111;SDS011;64011;56.312;44.048;2022-12-18T09:46:01;29.77;;;12.75;;
38111;SDS011;64011;56.312;44.048;2022-12-18T09:48:03;27.33;;;12.57;;
38111;SDS011;64011;56.312;44.048;2022-12-18T09:50:05;27.40;;;11.95;;
38111;SDS011;64011;56.312;44.048;2022-12-18T09:52:15;26.92;;;11.98;;
38111;SDS011;64011;56.312;44.048;2022-12-18T09:54:20;28.35;;;12.52;;
38111;SDS011;64011;56.312;44.048;2022-12-18T09:56:22;28.17;;;12.75;;
38111;SDS011;64011;56.312;44.048;2022-12-18T09:58:24;27.63;;;12.77;;
38111;SDS011;64011;56.312;44.048;2022-12-18T10:00:27;27.48;;;12.05;;
38111;SDS011;64011;56.312;44.048;2022-12-18T10:02:30;28.58;;;12.70;;
38111;SDS011;64011;56.312;44.048;2022-12-18T10:04:31;24.10;;;11.07;;
38111;SDS011;64011;56.312;44.048;2022-12-18T10:06:35;30.90;;;12.93;;
38111;SDS011;64011;56.312;44.048;2022-12-18T10:08:39;28.33;;;12.93;;
38111;SDS011;64011;56.312;44.048;2022-12-18T10:10:46;28.77;;;13.05;;
38111;SDS011;64011;56.312;44.048;2022-12-18T10:12:48;25.48;;;11.75;;
38111;SDS011;64011;56.312;44.048;2022-12-18T10:14:54;28.33;;;12.43;;
38111;SDS011;64011;56.312;44.048;2022-12-18T10:16:59;28.95;;;12.05;;
38111;SDS011;64011;56.312;44.048;2022-12-18T10:19:11;28.85;;;12.75;;
38111;SDS011;64011;56.312;44.048;2022-12-18T10:21:19;30.15;;;12.80;;
38111;SDS011;64011;56.312;44.048;2022-12-18T10:23:25;27.85;;;12.90;;
38111;SDS011;64011;56.312;44.048;2022-12-18T10:25:30;28.27;;;12.70;;
38111;SDS011;64011;56.312;44.048;2022-12-18T10:27:34;27.65;;;12.20;;
38111;SDS011;64011;56.312;44.048;2022-12-18T10:29:35;29.25;;;12.82;;
38111;SDS011;64011;56.312;44.048;2022-12-18T10:31:36;26.88;;;13.02;;
38111;SDS011;64011;56.312;44.048;2022-12-18T10:33:36;28.33;;;12.57;;
38111;SDS011;64011;56.312;44.048;2022-12-18T10:35:39;28.80;;;12.43;;
38111;SDS011;64011;56.312;44.048;2022-12-18T10:37:42;27.85;;;12.45;;
38111;SDS011;64011;56.312;44.048;2022-12-18T10:40:07;28.63;;;12.52;;
38111;SDS011;64011;56.312;44.048;2022-12-18T10:42:14;28.10;;;12.40;;
38111;SDS011;64011;56.312;44.048;2022-12-18T10:44:18;28.52;;;12.65;;
38111;SDS011;64011;56.312;44.048;2022-12-18T10:46:19;28.70;;;11.73;;
38111;SDS011;64011;56.312;44.048;2022-12-18T10:48:21;28.60;;;12.82;;
38111;SDS011;64011;56.312;44.048;2022-12-18T10:50:23;25.58;;;12.20;;
38111;SDS011;64011;56.312;44.048;2022-12-18T10:52:27;28.67;;;12.20;;
38111;SDS011;64011;56.312;44.048;2022-12-18T10:54:28;28.42;;;12.45;;
38111;SDS011;64011;56.312;44.048;2022-12-18T10:56:30;28.02;;;12.07;;
38111;SDS011;64011;56.312;44.048;2022-12-18T10:58:33;29.40;;;11.48;;
38111;SDS011;64011;56.312;44.048;2022-12-18T11:00:35;28.10;;;12.00;;
38111;SDS011;64011;56.312;44.048;2022-12-18T11:02:37;27.17;;;10.95;;
38111;SDS011;64011;56.312;44.048;2022-12-18T11:04:38;26.35;;;11.52;;
38111;SDS011;64011;56.312;44.048;2022-12-18T11:06:52;25.38;;;10.60;;
38111;SDS011;64011;56.312;44.048;2022-12-18T11:08:59;24.73;;;11.35;;
38111;SDS011;64011;56.312;44.048;2022-12-18T11:11:00;25.80;;;10.77;;
38111;SDS011;64011;56.312;44.048;2022-12-18T11:13:11;27.08;;;11.80;;
38111;SDS011;64011;56.312;44.048;2022-12-18T11:15:16;26.33;;;11.95;;
38111;SDS011;64011;56.312;44.048;2022-12-18T11:17:20;26.40;;;12.20;;
38111;SDS011;64011;56.312;44.048;2022-12-18T11:19:26;23.63;;;10.63;;
38111;SDS011;64011;56.312;44.048;2022-12-18T11:21:30;29.33;;;11.95;;
38111;SDS011;64011;56.312;44.048;2022-12-18T11:23:44;26.65;;;11.88;;
38111;SDS011;64011;56.312;44.048;2022-12-18T11:25:52;28.05;;;12.00;;
38111;SDS011;64011;56.312;44.048;2022-12-18T11:27:54;28.30;;;12.18;;
38111;SDS011;64011;56.312;44.048;2022-12-18T11:30:06;26.65;;;11.32;;
38111;SDS011;64011;56.312;44.048;2022-12-18T11:34:33;24.23;;;9.93;;
38111;SDS011;64011;56.312;44.048;2022-12-18T11:36:36;26.63;;;11.43;;
38111;SDS011;64011;56.312;44.048;2022-12-18T11:38:39;25.35;;;10.77;;
38111;SDS011;64011;56.312;44.048;2022-12-18T11:40:42;23.50;;;10.23;;
38111;SDS011;64011;56.312;44.048;2022-12-18T11:42:48;24.95;;;9.93;;
38111;SDS011;64011;56.312;44.048;2022-12-18T11:44:52;23.58;;;10.32;;
38111;SDS011;64011;56.312;44.048;2022-12-18T11:46:55;22.23;;;10.00;;
38111;SDS011;64011;56.312;44.048;2022-12-18T11:49:01;24.60;;;10.13;;
38111;SDS011;64011;56.312;44.048;2022-12-18T11:51:04;22.23;;;9.95;;